sensor_id;sensor_type;location;lat;lon;timestamp;P1;durP1;ratioP1;P2;durP2;ratioP2
30307;SDS011;17114;52.314;8.910;2023-05-14T00:00:28;18.13;;;13.20;;
30307;SDS011;17114;52.314;8.910;2023-05-14T00:02:55;18.35;;;13.18;;
30307;SDS011;17114;52.314;8.910;2023-05-14T00:05:23;21.85;;;13.73;;
30307;SDS011;17114;52.314;8.910;2023-05-14T00:07:50;17.38;;;12.93;;
30307;SDS011;17114;52.314;8.910;2023-05-14T00:10:17;17.15;;;12.70;;
30307;SDS011;17114;52.314;8.910;2023-05-14T00:12:47;18.48;;;13.35;;
30307;SDS011;17114;52.314;8.910;2023-05-14T00:15:16;18.55;;;12.77;;
30307;SDS011;17114;52.314;8.910;2023-05-14T00:17:43;18.10;;;13.82;;
30307;SDS011;17114;52.314;8.910;2023-05-14T00:20:10;16.50;;;11.95;;
30307;SDS011;17114;52.314;8.910;2023-05-14T00:22:38;19.13;;;13.60;;
30307;SDS011;17114;52.314;8.910;2023-05-14T00:25:06;18.63;;;13.90;;
30307;SDS011;17114;52.314;8.910;2023-05-14T00:27:33;17.10;;;12.98;;
30307;SDS011;17114;52.314;8.910;2023-05-14T00:30:01;20.23;;;12.75;;
30307;SDS011;17114;52.314;8.910;2023-05-14T00:32:29;18.48;;;13.00;;
30307;SDS011;17114;52.314;8.910;2023-05-14T00:34:56;18.05;;;12.80;;
30307;SDS011;17114;52.314;8.910;2023-05-14T00:37:23;18.67;;;12.63;;
30307;SDS011;17114;52.314;8.910;2023-05-14T00:39:50;15.40;;;11.95;;
30307;SDS011;17114;52.314;8.910;2023-05-14T00:42:17;16.83;;;12.55;;
30307;SDS011;17114;52.314;8.910;2023-05-14T00:44:44;15.35;;;11.80;;
30307;SDS011;17114;52.314;8.910;2023-05-14T00:47:11;16.33;;;12.52;;
30307;SDS011;17114;52.314;8.910;2023-05-14T00:49:38;18.27;;;12.73;;
30307;SDS011;17114;52.314;8.910;2023-05-14T00:52:06;16.23;;;11.52;;
30307;SDS011;17114;52.314;8.910;2023-05-14T00:54:33;19.83;;;11.77;;
30307;SDS011;17114;52.314;8.910;2023-05-14T00:57:02;15.85;;;11.98;;
30307;SDS011;17114;52.314;8.910;2023-05-14T00:59:30;19.20;;;12.35;;
30307;SDS011;17114;52.314;8.910;2023-05-14T01:01:57;15.93;;;11.50;;
30307;SDS011;17114;52.314;8.910;2023-05-14T01:04:24;15.77;;;12.50;;
30307;SDS011;17114;52.314;8.910;2023-05-14T01:07:02;18.73;;;12.07;;
30307;SDS011;17114;52.314;8.910;2023-05-14T01:15:06;16.35;;;11.60;;
30307;SDS011;17114;52.314;8.910;2023-05-14T01:17:44;14.60;;;12.05;;
30307;SDS011;17114;52.314;8.910;2023-05-14T01:22:42;20.95;;;13.75;;
30307;SDS011;17114;52.314;8.910;2023-05-14T01:25:09;17.23;;;12.13;;
30307;SDS011;17114;52.314;8.910;2023-05-14T01:27:56;15.15;;;11.88;;
30307;SDS011;17114;52.314;8.910;2023-05-14T01:30:27;13.70;;;11.63;;
30307;SDS011;17114;52.314;8.910;2023-05-14T01:33:07;13.30;;;11.70;;
30307;SDS011;17114;52.314;8.910;2023-05-14T01:35:37;10.93;;;8.90;;
30307;SDS011;17114;52.314;8.910;2023-05-14T01:38:06;13.68;;;11.25;;
30307;SDS011;17114;52.314;8.910;2023-05-14T01:40:36;19.52;;;12.82;;
30307;SDS011;17114;52.314;8.910;2023-05-14T01:43:03;17.60;;;14.23;;
30307;SDS011;17114;52.314;8.910;2023-05-14T01:45:33;18.63;;;13.40;;
30307;SDS011;17114;52.314;8.910;2023-05-14T01:48:02;21.73;;;13.10;;
30307;SDS011;17114;52.314;8.910;2023-05-14T01:50:30;15.80;;;13.15;;
30307;SDS011;17114;52.314;8.910;2023-05-14T01:52:57;17.80;;;13.38;;
30307;SDS011;17114;52.314;8.910;2023-05-14T01:55:25;16.20;;;12.50;;
30307;SDS011;17114;52.314;8.910;2023-05-14T01:57:52;17.50;;;14.18;;
30307;SDS011;17114;52.314;8.910;2023-05-14T02:00:20;18.92;;;14.30;;
30307;SDS011;17114;52.314;8.910;2023-05-14T02:02:49;20.08;;;14.35;;
30307;SDS011;17114;52.314;8.910;2023-05-14T02:05:16;20.13;;;15.10;;
30307;SDS011;17114;52.314;8.910;2023-05-14T02:07:44;17.20;;;14.18;;
30307;SDS011;17114;52.314;8.910;2023-05-14T02:10:11;18.08;;;13.60;;
30307;SDS011;17114;52.314;8.910;2023-05-14T02:12:38;16.75;;;13.07;;
30307;SDS011;17114;52.314;8.910;2023-05-14T02:15:05;16.42;;;13.25;;
30307;SDS011;17114;52.314;8.910;2023-05-14T02:17:34;16.60;;;12.18;;
30307;SDS011;17114;52.314;8.910;2023-05-14T02:20:01;19.08;;;13.38;;
30307;SDS011;17114;52.314;8.910;2023-05-14T02:22:28;15.80;;;13.75;;
30307;SDS011;17114;52.314;8.910;2023-05-14T02:24:55;14.90;;;12.30;;
30307;SDS011;17114;52.314;8.910;2023-05-14T02:27:22;17.50;;;12.75;;
30307;SDS011;17114;52.314;8.910;2023-05-14T02:29:49;15.52;;;12.65;;
30307;SDS011;17114;52.314;8.910;2023-05-14T02:32:16;17.05;;;11.90;;
30307;SDS011;17114;52.314;8.910;2023-05-14T02:34:43;16.42;;;11.60;;
30307;SDS011;17114;52.314;8.910;2023-05-14T02:37:10;14.68;;;12.35;;
30307;SDS011;17114;52.314;8.910;2023-05-14T02:39:37;13.20;;;10.85;;
30307;SDS011;17114;52.314;8.910;2023-05-14T02:42:04;15.80;;;11.20;;
30307;SDS011;17114;52.314;8.910;2023-05-14T02:44:32;15.50;;;12.30;;
30307;SDS011;17114;52.314;8.910;2023-05-14T02:46:59;14.15;;;10.75;;
30307;SDS011;17114;52.314;8.910;2023-05-14T02:49:26;16.58;;;11.52;;
30307;SDS011;17114;52.314;8.910;2023-05-14T02:51:53;16.52;;;12.57;;
30307;SDS011;17114;52.314;8.910;2023-05-14T02:54:20;13.90;;;10.98;;
30307;SDS011;17114;52.314;8.910;2023-05-14T02:56:47;12.98;;;10.45;;
30307;SDS011;17114;52.314;8.910;2023-05-14T02:59:14;12.13;;;9.90;;
30307;SDS011;17114;52.314;8.910;2023-05-14T03:01:41;11.80;;;10.02;;
30307;SDS011;17114;52.314;8.910;2023-05-14T03:04:08;12.35;;;9.88;;
30307;SDS011;17114;52.314;8.910;2023-05-14T03:06:35;14.10;;;9.77;;
30307;SDS011;17114;52.314;8.910;2023-05-14T03:09:02;16.02;;;10.57;;
30307;SDS011;17114;52.314;8.910;2023-05-14T03:11:29;14.65;;;10.88;;
30307;SDS011;17114;52.314;8.910;2023-05-14T03:13:56;12.63;;;9.93;;
30307;SDS011;17114;52.314;8.910;2023-05-14T03:16:23;13.27;;;10.35;;
30307;SDS011;17114;52.314;8.910;2023-05-14T03:18:50;12.27;;;9.80;;
30307;SDS011;17114;52.314;8.910;2023-05-14T03:21:16;13.07;;;10.65;;
30307;SDS011;17114;52.314;8.910;2023-05-14T03:23:43;12.60;;;9.52;;
30307;SDS011;17114;52.314;8.910;2023-05-14T03:26:10;14.75;;;9.82;;
30307;SDS011;17114;52.314;8.910;2023-05-14T03:28:38;13.68;;;10.18;;
30307;SDS011;17114;52.314;8.910;2023-05-14T03:31:06;11.40;;;9.65;;
30307;SDS011;17114;52.314;8.910;2023-05-14T03:33:32;13.07;;;10.30;;
30307;SDS011;17114;52.314;8.910;2023-05-14T03:35:59;17.23;;;12.40;;
30307;SDS011;17114;52.314;8.910;2023-05-14T03:38:26;12.52;;;10.73;;
30307;SDS011;17114;52.314;8.910;2023-05-14T03:40:53;16.80;;;10.85;;
30307;SDS011;17114;52.314;8.910;2023-05-14T03:43:20;13.32;;;10.75;;
30307;SDS011;17114;52.314;8.910;2023-05-14T03:45:47;14.75;;;10.95;;
30307;SDS011;17114;52.314;8.910;2023-05-14T03:48:18;11.98;;;10.52;;
30307;SDS011;17114;52.314;8.910;2023-05-14T03:50:45;14.63;;;11.60;;
30307;SDS011;17114;52.314;8.910;2023-05-14T03:53:12;12.95;;;10.30;;
30307;SDS011;17114;52.314;8.910;2023-05-14T03:55:39;12.77;;;11.02;;
30307;SDS011;17114;52.314;8.910;2023-05-14T03:58:06;17.95;;;11.23;;
30307;SDS011;17114;52.314;8.910;2023-05-14T04:00:39;13.77;;;10.48;;
30307;SDS011;17114;52.314;8.910;2023-05-14T04:03:09;17.15;;;11.25;;
30307;SDS011;17114;52.314;8.910;2023-05-14T04:05:37;13.10;;;10.70;;
30307;SDS011;17114;52.314;8.910;2023-05-14T04:08:04;14.20;;;10.13;;
30307;SDS011;17114;52.314;8.910;2023-05-14T04:10:31;12.65;;;10.05;;
30307;SDS011;17114;52.314;8.910;2023-05-14T04:12:58;13.85;;;10.95;;
30307;SDS011;17114;52.314;8.910;2023-05-14T04:15:27;14.40;;;10.88;;
30307;SDS011;17114;52.314;8.910;2023-05-14T04:17:54;13.32;;;11.32;;
30307;SDS011;17114;52.314;8.910;2023-05-14T04:20:21;14.68;;;10.15;;
30307;SDS011;17114;52.314;8.910;2023-05-14T04:22:48;13.65;;;11.55;;
30307;SDS011;17114;52.314;8.910;2023-05-14T04:25:15;15.57;;;11.50;;
30307;SDS011;17114;52.314;8.910;2023-05-14T04:27:43;15.77;;;11.85;;
30307;SDS011;17114;52.314;8.910;2023-05-14T04:30:10;16.90;;;11.52;;
30307;SDS011;17114;52.314;8.910;2023-05-14T04:32:38;14.00;;;11.23;;
30307;SDS011;17114;52.314;8.910;2023-05-14T04:35:05;14.77;;;10.85;;
30307;SDS011;17114;52.314;8.910;2023-05-14T04:37:32;13.00;;;10.88;;
30307;SDS011;17114;52.314;8.910;2023-05-14T04:39:59;14.00;;;10.50;;
30307;SDS011;17114;52.314;8.910;2023-05-14T04:42:26;12.05;;;9.63;;
30307;SDS011;17114;52.314;8.910;2023-05-14T04:44:53;12.05;;;9.63;;
30307;SDS011;17114;52.314;8.910;2023-05-14T04:47:20;14.02;;;9.68;;
30307;SDS011;17114;52.314;8.910;2023-05-14T04:49:47;13.48;;;10.25;;
30307;SDS011;17114;52.314;8.910;2023-05-14T04:52:14;15.45;;;10.43;;
30307;SDS011;17114;52.314;8.910;2023-05-14T04:54:41;13.68;;;10.10;;
30307;SDS011;17114;52.314;8.910;2023-05-14T04:57:08;15.82;;;11.02;;
30307;SDS011;17114;52.314;8.910;2023-05-14T04:59:35;12.20;;;10.38;;
30307;SDS011;17114;52.314;8.910;2023-05-14T05:02:02;15.43;;;9.85;;
30307;SDS011;17114;52.314;8.910;2023-05-14T05:04:29;14.13;;;10.15;;
30307;SDS011;17114;52.314;8.910;2023-05-14T05:06:56;11.73;;;8.27;;
30307;SDS011;17114;52.314;8.910;2023-05-14T05:09:23;11.93;;;8.07;;
30307;SDS011;17114;52.314;8.910;2023-05-14T05:11:50;10.15;;;8.13;;
30307;SDS011;17114;52.314;8.910;2023-05-14T05:14:17;11.70;;;8.45;;
30307;SDS011;17114;52.314;8.910;2023-05-14T05:16:44;9.57;;;7.50;;
30307;SDS011;17114;52.314;8.910;2023-05-14T05:19:14;11.10;;;7.28;;
30307;SDS011;17114;52.314;8.910;2023-05-14T05:21:41;9.10;;;7.55;;
30307;SDS011;17114;52.314;8.910;2023-05-14T05:24:08;7.22;;;5.95;;
30307;SDS011;17114;52.314;8.910;2023-05-14T05:26:35;9.85;;;6.18;;
30307;SDS011;17114;52.314;8.910;2023-05-14T05:29:03;8.00;;;6.32;;
30307;SDS011;17114;52.314;8.910;2023-05-14T05:31:33;8.43;;;6.25;;
30307;SDS011;17114;52.314;8.910;2023-05-14T05:34:02;7.25;;;6.00;;
30307;SDS011;17114;52.314;8.910;2023-05-14T05:36:29;7.85;;;5.45;;
30307;SDS011;17114;52.314;8.910;2023-05-14T05:38:57;8.35;;;5.78;;
30307;SDS011;17114;52.314;8.910;2023-05-14T05:41:23;7.45;;;4.70;;
30307;SDS011;17114;52.314;8.910;2023-05-14T05:43:51;8.60;;;4.90;;
30307;SDS011;17114;52.314;8.910;2023-05-14T05:46:18;6.95;;;5.25;;
30307;SDS011;17114;52.314;8.910;2023-05-14T05:48:45;10.05;;;4.80;;
30307;SDS011;17114;52.314;8.910;2023-05-14T05:51:12;6.50;;;5.18;;
30307;SDS011;17114;52.314;8.910;2023-05-14T05:53:39;9.48;;;5.03;;
30307;SDS011;17114;52.314;8.910;2023-05-14T05:56:06;6.13;;;5.00;;
30307;SDS011;17114;52.314;8.910;2023-05-14T05:58:33;8.07;;;4.82;;
30307;SDS011;17114;52.314;8.910;2023-05-14T06:01:02;5.70;;;5.10;;
30307;SDS011;17114;52.314;8.910;2023-05-14T06:03:38;9.15;;;5.18;;
30307;SDS011;17114;52.314;8.910;2023-05-14T06:06:05;5.78;;;4.70;;
30307;SDS011;17114;52.314;8.910;2023-05-14T06:12:36;5.43;;;4.50;;
30307;SDS011;17114;52.314;8.910;2023-05-14T06:15:12;6.90;;;4.88;;
30307;SDS011;17114;52.314;8.910;2023-05-14T06:17:41;6.03;;;4.57;;
30307;SDS011;17114;52.314;8.910;2023-05-14T06:20:08;5.10;;;4.60;;
30307;SDS011;17114;52.314;8.910;2023-05-14T06:22:36;7.10;;;4.60;;
30307;SDS011;17114;52.314;8.910;2023-05-14T06:25:03;7.07;;;4.82;;
30307;SDS011;17114;52.314;8.910;2023-05-14T06:27:31;6.13;;;5.10;;
30307;SDS011;17114;52.314;8.910;2023-05-14T06:29:58;6.25;;;4.97;;
30307;SDS011;17114;52.314;8.910;2023-05-14T06:32:27;6.68;;;5.25;;
30307;SDS011;17114;52.314;8.910;2023-05-14T06:34:55;5.78;;;4.90;;
30307;SDS011;17114;52.314;8.910;2023-05-14T06:37:22;6.97;;;4.75;;
30307;SDS011;17114;52.314;8.910;2023-05-14T06:39:49;9.77;;;5.03;;
30307;SDS011;17114;52.314;8.910;2023-05-14T06:42:16;7.38;;;4.60;;
30307;SDS011;17114;52.314;8.910;2023-05-14T06:44:44;6.85;;;4.40;;
30307;SDS011;17114;52.314;8.910;2023-05-14T06:47:11;6.13;;;4.60;;
30307;SDS011;17114;52.314;8.910;2023-05-14T06:49:39;6.13;;;4.95;;
30307;SDS011;17114;52.314;8.910;2023-05-14T06:52:06;6.20;;;4.78;;
30307;SDS011;17114;52.314;8.910;2023-05-14T06:54:33;8.90;;;4.85;;
30307;SDS011;17114;52.314;8.910;2023-05-14T06:57:00;5.20;;;3.95;;
30307;SDS011;17114;52.314;8.910;2023-05-14T06:59:27;5.72;;;4.18;;
30307;SDS011;17114;52.314;8.910;2023-05-14T07:01:54;4.93;;;4.43;;
30307;SDS011;17114;52.314;8.910;2023-05-14T07:04:21;4.70;;;4.20;;
30307;SDS011;17114;52.314;8.910;2023-05-14T07:06:49;4.28;;;3.88;;
30307;SDS011;17114;52.314;8.910;2023-05-14T07:09:16;4.10;;;3.70;;
30307;SDS011;17114;52.314;8.910;2023-05-14T07:11:44;5.72;;;3.58;;
30307;SDS011;17114;52.314;8.910;2023-05-14T07:14:11;7.55;;;3.65;;
30307;SDS011;17114;52.314;8.910;2023-05-14T07:16:38;4.45;;;4.05;;
30307;SDS011;17114;52.314;8.910;2023-05-14T07:19:07;4.22;;;3.80;;
30307;SDS011;17114;52.314;8.910;2023-05-14T07:21:34;7.00;;;3.78;;
30307;SDS011;17114;52.314;8.910;2023-05-14T07:24:01;5.78;;;4.00;;
30307;SDS011;17114;52.314;8.910;2023-05-14T07:26:28;5.40;;;3.40;;
30307;SDS011;17114;52.314;8.910;2023-05-14T07:28:56;5.10;;;3.58;;
30307;SDS011;17114;52.314;8.910;2023-05-14T07:31:24;3.50;;;3.20;;
30307;SDS011;17114;52.314;8.910;2023-05-14T07:33:51;3.97;;;3.53;;
30307;SDS011;17114;52.314;8.910;2023-05-14T07:36:18;12.05;;;3.42;;
30307;SDS011;17114;52.314;8.910;2023-05-14T07:38:45;5.53;;;3.22;;
30307;SDS011;17114;52.314;8.910;2023-05-14T07:41:12;5.63;;;2.88;;
30307;SDS011;17114;52.314;8.910;2023-05-14T07:43:39;3.20;;;2.90;;
30307;SDS011;17114;52.314;8.910;2023-05-14T07:46:06;4.00;;;2.67;;
30307;SDS011;17114;52.314;8.910;2023-05-14T07:48:33;5.43;;;2.83;;
30307;SDS011;17114;52.314;8.910;2023-05-14T07:51:00;5.70;;;3.08;;
30307;SDS011;17114;52.314;8.910;2023-05-14T07:53:27;7.68;;;3.15;;
30307;SDS011;17114;52.314;8.910;2023-05-14T07:55:55;4.72;;;3.20;;
30307;SDS011;17114;52.314;8.910;2023-05-14T07:58:22;4.75;;;3.08;;
30307;SDS011;17114;52.314;8.910;2023-05-14T08:00:50;6.40;;;3.53;;
30307;SDS011;17114;52.314;8.910;2023-05-14T08:03:17;4.38;;;3.20;;
30307;SDS011;17114;52.314;8.910;2023-05-14T08:05:44;5.28;;;3.28;;
30307;SDS011;17114;52.314;8.910;2023-05-14T08:08:11;6.32;;;3.42;;
30307;SDS011;17114;52.314;8.910;2023-05-14T08:10:38;3.30;;;2.92;;
30307;SDS011;17114;52.314;8.910;2023-05-14T08:13:06;5.45;;;3.67;;
30307;SDS011;17114;52.314;8.910;2023-05-14T08:15:33;4.32;;;3.40;;
30307;SDS011;17114;52.314;8.910;2023-05-14T08:18:00;5.32;;;3.00;;
30307;SDS011;17114;52.314;8.910;2023-05-14T08:20:29;4.05;;;3.38;;
30307;SDS011;17114;52.314;8.910;2023-05-14T08:22:56;4.30;;;3.53;;
30307;SDS011;17114;52.314;8.910;2023-05-14T08:25:24;4.65;;;3.22;;
30307;SDS011;17114;52.314;8.910;2023-05-14T08:27:50;3.58;;;2.80;;
30307;SDS011;17114;52.314;8.910;2023-05-14T08:30:19;5.72;;;3.33;;
30307;SDS011;17114;52.314;8.910;2023-05-14T08:32:48;2.88;;;2.60;;
30307;SDS011;17114;52.314;8.910;2023-05-14T08:35:16;3.65;;;2.50;;
30307;SDS011;17114;52.314;8.910;2023-05-14T08:37:43;2.72;;;2.30;;
30307;SDS011;17114;52.314;8.910;2023-05-14T08:40:11;2.72;;;2.30;;
30307;SDS011;17114;52.314;8.910;2023-05-14T08:42:38;4.13;;;2.72;;
30307;SDS011;17114;52.314;8.910;2023-05-14T08:45:20;2.95;;;2.40;;
30307;SDS011;17114;52.314;8.910;2023-05-14T08:47:51;3.08;;;2.33;;
30307;SDS011;17114;52.314;8.910;2023-05-14T08:50:18;2.58;;;2.38;;
30307;SDS011;17114;52.314;8.910;2023-05-14T08:52:48;5.38;;;2.90;;
30307;SDS011;17114;52.314;8.910;2023-05-14T08:55:16;4.70;;;2.72;;
30307;SDS011;17114;52.314;8.910;2023-05-14T08:57:45;4.40;;;2.60;;
30307;SDS011;17114;52.314;8.910;2023-05-14T09:00:12;3.72;;;2.47;;
30307;SDS011;17114;52.314;8.910;2023-05-14T09:02:41;2.75;;;2.55;;
30307;SDS011;17114;52.314;8.910;2023-05-14T09:05:10;5.53;;;2.80;;
30307;SDS011;17114;52.314;8.910;2023-05-14T09:07:37;3.35;;;2.30;;
30307;SDS011;17114;52.314;8.910;2023-05-14T09:10:05;4.95;;;2.80;;
30307;SDS011;17114;52.314;8.910;2023-05-14T09:12:34;3.72;;;2.72;;
30307;SDS011;17114;52.314;8.910;2023-05-14T09:15:01;3.97;;;3.47;;
30307;SDS011;17114;52.314;8.910;2023-05-14T09:17:28;3.28;;;2.97;;
30307;SDS011;17114;52.314;8.910;2023-05-14T09:19:55;3.92;;;3.03;;
30307;SDS011;17114;52.314;8.910;2023-05-14T09:22:24;3.88;;;3.22;;
30307;SDS011;17114;52.314;8.910;2023-05-14T09:25:00;4.20;;;2.97;;
30307;SDS011;17114;52.314;8.910;2023-05-14T09:27:35;3.65;;;2.50;;
30307;SDS011;17114;52.314;8.910;2023-05-14T09:30:06;3.17;;;2.83;;
30307;SDS011;17114;52.314;8.910;2023-05-14T09:32:35;4.75;;;2.50;;
30307;SDS011;17114;52.314;8.910;2023-05-14T09:35:13;4.15;;;2.65;;
30307;SDS011;17114;52.314;8.910;2023-05-14T09:37:46;2.72;;;2.38;;
30307;SDS011;17114;52.314;8.910;2023-05-14T09:40:15;3.55;;;2.60;;
30307;SDS011;17114;52.314;8.910;2023-05-14T09:42:44;4.68;;;2.75;;
30307;SDS011;17114;52.314;8.910;2023-05-14T09:45:12;3.38;;;2.75;;
30307;SDS011;17114;52.314;8.910;2023-05-14T09:47:39;5.10;;;2.58;;
30307;SDS011;17114;52.314;8.910;2023-05-14T09:50:07;3.15;;;2.30;;
30307;SDS011;17114;52.314;8.910;2023-05-14T09:52:34;2.95;;;2.55;;
30307;SDS011;17114;52.314;8.910;2023-05-14T09:55:02;3.10;;;2.67;;
30307;SDS011;17114;52.314;8.910;2023-05-14T09:57:30;3.47;;;2.70;;
30307;SDS011;17114;52.314;8.910;2023-05-14T09:59:57;3.30;;;2.80;;
30307;SDS011;17114;52.314;8.910;2023-05-14T10:02:25;5.03;;;3.40;;
30307;SDS011;17114;52.314;8.910;2023-05-14T10:04:59;3.20;;;2.65;;
30307;SDS011;17114;52.314;8.910;2023-05-14T10:07:32;3.08;;;2.58;;
30307;SDS011;17114;52.314;8.910;2023-05-14T10:10:02;3.10;;;2.20;;
30307;SDS011;17114;52.314;8.910;2023-05-14T10:12:33;6.35;;;2.30;;
30307;SDS011;17114;52.314;8.910;2023-05-14T10:15:05;2.20;;;1.92;;
30307;SDS011;17114;52.314;8.910;2023-05-14T10:17:43;4.78;;;2.10;;
30307;SDS011;17114;52.314;8.910;2023-05-14T10:20:14;2.83;;;2.00;;
30307;SDS011;17114;52.314;8.910;2023-05-14T10:22:43;4.53;;;2.20;;
30307;SDS011;17114;52.314;8.910;2023-05-14T10:25:10;3.22;;;2.30;;
30307;SDS011;17114;52.314;8.910;2023-05-14T10:27:38;2.30;;;2.10;;
30307;SDS011;17114;52.314;8.910;2023-05-14T10:30:09;2.38;;;2.00;;
30307;SDS011;17114;52.314;8.910;2023-05-14T10:32:40;3.07;;;2.50;;
30307;SDS011;17114;52.314;8.910;2023-05-14T10:35:19;3.95;;;2.42;;
30307;SDS011;17114;52.314;8.910;2023-05-14T10:37:51;1.90;;;1.65;;
30307;SDS011;17114;52.314;8.910;2023-05-14T10:40:18;2.05;;;1.88;;
30307;SDS011;17114;52.314;8.910;2023-05-14T10:42:49;3.05;;;2.45;;
30307;SDS011;17114;52.314;8.910;2023-05-14T10:45:16;3.05;;;2.10;;
30307;SDS011;17114;52.314;8.910;2023-05-14T10:47:44;2.00;;;1.80;;
30307;SDS011;17114;52.314;8.910;2023-05-14T10:50:13;2.92;;;1.70;;
30307;SDS011;17114;52.314;8.910;2023-05-14T10:52:41;5.13;;;2.55;;
30307;SDS011;17114;52.314;8.910;2023-05-14T10:55:12;3.83;;;2.08;;
30307;SDS011;17114;52.314;8.910;2023-05-14T10:57:41;2.63;;;2.10;;
30307;SDS011;17114;52.314;8.910;2023-05-14T11:00:11;2.13;;;1.85;;
30307;SDS011;17114;52.314;8.910;2023-05-14T11:02:41;4.15;;;2.22;;
30307;SDS011;17114;52.314;8.910;2023-05-14T11:05:13;2.00;;;1.80;;
30307;SDS011;17114;52.314;8.910;2023-05-14T11:07:44;2.13;;;1.58;;
30307;SDS011;17114;52.314;8.910;2023-05-14T11:10:17;2.47;;;1.95;;
30307;SDS011;17114;52.314;8.910;2023-05-14T11:12:46;1.75;;;1.65;;
30307;SDS011;17114;52.314;8.910;2023-05-14T11:15:18;4.68;;;2.53;;
30307;SDS011;17114;52.314;8.910;2023-05-14T11:17:50;2.05;;;1.85;;
30307;SDS011;17114;52.314;8.910;2023-05-14T11:20:18;2.45;;;2.25;;
30307;SDS011;17114;52.314;8.910;2023-05-14T11:22:46;2.85;;;2.10;;
30307;SDS011;17114;52.314;8.910;2023-05-14T11:25:17;2.88;;;2.42;;
30307;SDS011;17114;52.314;8.910;2023-05-14T11:27:51;1.95;;;1.70;;
30307;SDS011;17114;52.314;8.910;2023-05-14T11:30:22;4.28;;;2.00;;
30307;SDS011;17114;52.314;8.910;2023-05-14T11:32:55;3.63;;;2.20;;
30307;SDS011;17114;52.314;8.910;2023-05-14T11:35:24;3.80;;;2.20;;
30307;SDS011;17114;52.314;8.910;2023-05-14T11:37:51;3.25;;;2.13;;
30307;SDS011;17114;52.314;8.910;2023-05-14T11:40:19;2.55;;;2.13;;
30307;SDS011;17114;52.314;8.910;2023-05-14T11:42:48;2.25;;;2.00;;
30307;SDS011;17114;52.314;8.910;2023-05-14T11:45:27;2.05;;;1.83;;
30307;SDS011;17114;52.314;8.910;2023-05-14T11:47:55;3.45;;;1.83;;
30307;SDS011;17114;52.314;8.910;2023-05-14T11:50:22;4.97;;;1.75;;
30307;SDS011;17114;52.314;8.910;2023-05-14T11:52:49;2.47;;;2.00;;
30307;SDS011;17114;52.314;8.910;2023-05-14T11:55:21;2.33;;;1.98;;
30307;SDS011;17114;52.314;8.910;2023-05-14T11:57:48;2.15;;;1.80;;
30307;SDS011;17114;52.314;8.910;2023-05-14T12:00:16;6.22;;;2.30;;
30307;SDS011;17114;52.314;8.910;2023-05-14T12:02:47;4.18;;;2.00;;
30307;SDS011;17114;52.314;8.910;2023-05-14T12:05:15;2.45;;;2.25;;
30307;SDS011;17114;52.314;8.910;2023-05-14T12:07:45;3.42;;;2.15;;
30307;SDS011;17114;52.314;8.910;2023-05-14T12:10:13;5.25;;;2.10;;
30307;SDS011;17114;52.314;8.910;2023-05-14T12:12:43;4.97;;;2.38;;
30307;SDS011;17114;52.314;8.910;2023-05-14T12:15:13;2.40;;;2.20;;
30307;SDS011;17114;52.314;8.910;2023-05-14T12:17:41;4.03;;;2.00;;
30307;SDS011;17114;52.314;8.910;2023-05-14T12:20:14;3.08;;;2.30;;
30307;SDS011;17114;52.314;8.910;2023-05-14T12:22:42;3.85;;;2.03;;
30307;SDS011;17114;52.314;8.910;2023-05-14T12:25:10;4.93;;;2.67;;
30307;SDS011;17114;52.314;8.910;2023-05-14T12:27:39;3.30;;;2.65;;
30307;SDS011;17114;52.314;8.910;2023-05-14T12:30:07;2.83;;;2.40;;
30307;SDS011;17114;52.314;8.910;2023-05-14T12:32:37;3.45;;;2.50;;
30307;SDS011;17114;52.314;8.910;2023-05-14T12:35:08;2.65;;;2.40;;
30307;SDS011;17114;52.314;8.910;2023-05-14T12:37:36;2.55;;;2.10;;
30307;SDS011;17114;52.314;8.910;2023-05-14T12:40:05;3.95;;;2.45;;
30307;SDS011;17114;52.314;8.910;2023-05-14T12:42:36;3.38;;;2.40;;
30307;SDS011;17114;52.314;8.910;2023-05-14T12:45:03;3.92;;;2.40;;
30307;SDS011;17114;52.314;8.910;2023-05-14T12:47:33;3.20;;;2.90;;
30307;SDS011;17114;52.314;8.910;2023-05-14T12:50:01;3.95;;;2.70;;
30307;SDS011;17114;52.314;8.910;2023-05-14T12:52:29;3.55;;;2.38;;
30307;SDS011;17114;52.314;8.910;2023-05-14T12:54:59;3.53;;;2.95;;
30307;SDS011;17114;52.314;8.910;2023-05-14T12:57:26;6.00;;;2.70;;
30307;SDS011;17114;52.314;8.910;2023-05-14T12:59:55;3.03;;;2.50;;
30307;SDS011;17114;52.314;8.910;2023-05-14T13:02:23;3.17;;;2.58;;
30307;SDS011;17114;52.314;8.910;2023-05-14T13:04:51;3.60;;;2.83;;
30307;SDS011;17114;52.314;8.910;2023-05-14T13:07:18;3.05;;;2.75;;
30307;SDS011;17114;52.314;8.910;2023-05-14T13:09:45;5.55;;;2.85;;
30307;SDS011;17114;52.314;8.910;2023-05-14T13:12:13;6.50;;;3.25;;
30307;SDS011;17114;52.314;8.910;2023-05-14T13:14:41;5.57;;;2.88;;
30307;SDS011;17114;52.314;8.910;2023-05-14T13:17:08;4.15;;;2.80;;
30307;SDS011;17114;52.314;8.910;2023-05-14T13:19:35;4.70;;;2.85;;
30307;SDS011;17114;52.314;8.910;2023-05-14T13:22:02;3.53;;;2.70;;
30307;SDS011;17114;52.314;8.910;2023-05-14T13:24:30;6.30;;;3.00;;
30307;SDS011;17114;52.314;8.910;2023-05-14T13:26:57;7.63;;;3.10;;
30307;SDS011;17114;52.314;8.910;2023-05-14T13:29:25;6.95;;;3.30;;
30307;SDS011;17114;52.314;8.910;2023-05-14T13:31:55;3.30;;;2.92;;
30307;SDS011;17114;52.314;8.910;2023-05-14T13:34:22;4.55;;;2.60;;
30307;SDS011;17114;52.314;8.910;2023-05-14T13:36:49;3.13;;;2.83;;
30307;SDS011;17114;52.314;8.910;2023-05-14T13:39:16;3.10;;;2.80;;
30307;SDS011;17114;52.314;8.910;2023-05-14T13:41:47;3.55;;;2.70;;
30307;SDS011;17114;52.314;8.910;2023-05-14T13:44:15;4.20;;;2.55;;
30307;SDS011;17114;52.314;8.910;2023-05-14T13:46:43;3.45;;;2.83;;
30307;SDS011;17114;52.314;8.910;2023-05-14T13:49:10;4.05;;;2.70;;
30307;SDS011;17114;52.314;8.910;2023-05-14T13:51:37;4.57;;;3.13;;
30307;SDS011;17114;52.314;8.910;2023-05-14T13:54:04;4.20;;;3.15;;
30307;SDS011;17114;52.314;8.910;2023-05-14T13:56:31;4.35;;;2.78;;
30307;SDS011;17114;52.314;8.910;2023-05-14T13:58:58;6.88;;;3.35;;
30307;SDS011;17114;52.314;8.910;2023-05-14T14:01:25;4.57;;;2.92;;
30307;SDS011;17114;52.314;8.910;2023-05-14T14:03:53;4.55;;;3.30;;
30307;SDS011;17114;52.314;8.910;2023-05-14T14:06:19;4.10;;;3.50;;
30307;SDS011;17114;52.314;8.910;2023-05-14T14:08:46;4.20;;;3.33;;
30307;SDS011;17114;52.314;8.910;2023-05-14T14:11:14;4.60;;;3.13;;
30307;SDS011;17114;52.314;8.910;2023-05-14T14:13:42;4.45;;;3.10;;
30307;SDS011;17114;52.314;8.910;2023-05-14T14:16:11;5.85;;;3.45;;
30307;SDS011;17114;52.314;8.910;2023-05-14T14:18:39;4.80;;;3.65;;
30307;SDS011;17114;52.314;8.910;2023-05-14T14:21:06;4.05;;;3.47;;
30307;SDS011;17114;52.314;8.910;2023-05-14T14:23:34;4.97;;;3.78;;
30307;SDS011;17114;52.314;8.910;2023-05-14T14:26:01;5.10;;;3.45;;
30307;SDS011;17114;52.314;8.910;2023-05-14T14:28:28;6.35;;;3.72;;
30307;SDS011;17114;52.314;8.910;2023-05-14T14:30:55;5.03;;;3.35;;
30307;SDS011;17114;52.314;8.910;2023-05-14T14:33:22;6.40;;;3.45;;
30307;SDS011;17114;52.314;8.910;2023-05-14T14:35:49;5.78;;;3.30;;
30307;SDS011;17114;52.314;8.910;2023-05-14T14:38:17;4.30;;;3.47;;
30307;SDS011;17114;52.314;8.910;2023-05-14T14:40:44;8.70;;;3.45;;
30307;SDS011;17114;52.314;8.910;2023-05-14T14:43:11;5.97;;;3.70;;
30307;SDS011;17114;52.314;8.910;2023-05-14T14:45:38;6.45;;;3.47;;
30307;SDS011;17114;52.314;8.910;2023-05-14T14:51:05;5.57;;;3.50;;
30307;SDS011;17114;52.314;8.910;2023-05-14T14:53:33;5.18;;;3.60;;
30307;SDS011;17114;52.314;8.910;2023-05-14T14:56:01;6.75;;;3.90;;
30307;SDS011;17114;52.314;8.910;2023-05-14T14:58:28;5.78;;;3.53;;